Flight Track Log - Related Links

Times and Time Zones

All times are in EDT time to prevent confusion due to time zone crossing. See the SKW5556 flight status page for this flight to view local times or setup timezone preferences in your user account.

Time Position Orientation Groundspeed Altitude Reporting Facility
EDT Latitude Longitude Course Direction KTS MPH feet Rate Location/Type
Mon 05:15:00 PM 33.6323 -116.9756 104° East  Level Estimated
Mon 05:16:00 PM 33.6004 -116.8329 105° East  Level Estimated
Mon 05:17:00 PM 33.5683 -116.6904 105° East  Level Estimated
Mon 05:18:00 PM 33.5360 -116.5479 105° East  Level Estimated
Mon 05:19:00 PM 33.5036 -116.4055 105° East  Level Estimated
Mon 05:20:00 PM 33.4710 -116.2633 105° East  Level Estimated
Mon 05:21:00 PM 33.4383 -116.1212 105° East  Level Estimated
Mon 05:22:00 PM 33.4054 -115.9791 105° East  Level Estimated
Mon 05:23:00 PM 33.3723 -115.8372 106° East  Level Estimated
Mon 05:24:00 PM 33.3391 -115.6954 106° East  Level Estimated
Mon 05:25:00 PM 33.3057 -115.5537 106° East  Level Estimated
Mon 05:26:00 PM 33.2722 -115.4121 106° East  Level Estimated
Mon 05:27:00 PM 33.2385 -115.2706 106° East  Level Estimated
Mon 05:28:00 PM 33.2046 -115.1292 106° East  Level Estimated
Mon 05:29:00 PM 33.1706 -114.9880 106° East  Level Estimated
Mon 05:30:00 PM 33.1364 -114.8468 106° East  Level Estimated
Mon 05:31:00 PM 33.1020 -114.7057 106° East  Level Estimated
Mon 05:32:00 PM 33.0675 -114.5648 106° East  Level Estimated
Mon 05:33:00 PM 33.0329 -114.4240 106° East  Level Estimated
Mon 05:34:00 PM 32.9980 -114.2832 106° East  Level Estimated
Mon 05:35:00 PM 32.9631 -114.1426 106° East  Level Estimated
Mon 05:36:00 PM 32.9279 -114.0021 107° East  Level Estimated
Mon 05:37:00 PM 32.8926 -113.8618 107° East  Level Estimated
Mon 05:38:00 PM 32.8572 -113.7215 107° East  Level Estimated
Mon 05:39:00 PM 32.8216 -113.5813 107° East  Level Estimated
Mon 05:40:00 PM 32.7858 -113.4413 107° East  Level Estimated
Mon 05:41:00 PM 32.7499 -113.3014 107° East  Level Estimated
Mon 05:42:00 PM 32.7138 -113.1615 107° East  Level Estimated
Mon 05:43:00 PM 32.6776 -113.0218 107° East  Level Estimated
Mon 05:44:00 PM 32.6412 -112.8822 107° East  Level Estimated
Mon 05:45:00 PM 32.6047 -112.7427 107° East  Level Estimated
Mon 05:46:00 PM 32.5680 -112.6034 107° East  Level Estimated
Mon 05:47:00 PM 32.5311 -112.4641 107° East  Level Estimated
Mon 05:48:00 PM 32.4941 -112.3250 107° East  Level Estimated
Mon 05:49:00 PM 32.4570 -112.1860 108° East  Level Estimated
Mon 05:50:00 PM 32.4197 -112.0471 108° East  Level Estimated
Mon 05:51:00 PM 32.3822 -111.9083 108° East  Level Estimated
Mon 05:52:00 PM 32.3446 -111.7696 108° East  Level Estimated
Mon 05:53:00 PM 32.3069 -111.6310 108° East  Level Estimated
Mon 05:54:00 PM 32.2689 -111.4926 108° East  Level Estimated
Mon 05:55:00 PM 32.2309 -111.3542 108° East  Level Estimated
Mon 05:56:00 PM 32.1927 -111.2160 108° East  Level Estimated
Mon 05:57:00 PM 32.1543 -111.0779 108° East  Level Estimated
Mon 05:58:00 PM 32.1161 -110.9410 108° East  Level Estimated
Mon 05:59:00 PM 32.1161 -110.9410 North  Level Estimated
Mon 06:00:00 PM 32.1161 -110.9410 North  Level Estimated
Mon 06:01:00 PM 32.1161 -110.9410 North  Level Estimated
Mon 06:02:00 PM 32.1161 -110.9410 North  Level Estimated
Mon 06:03:00 PM 32.1161 -110.9410 North  Level Estimated
Mon 06:04:00 PM 32.1161 -110.9410 North  Level Estimated
Mon 06:05:00 PM 32.1161 -110.9410 North  Level Estimated
Mon 06:06:00 PM 32.1161 -110.9410 North  Level Estimated
Mon 06:07:00 PM 32.1161 -110.9410 North  Level Estimated
Mon 06:08:00 PM 32.1161 -110.9410 North  Level Estimated
Mon 06:09:00 PM 32.1161 -110.9410 North  Level Estimated
Mon 06:10:00 PM 32.1161 -110.9410 North  Level Estimated
Mon 06:11:00 PM 32.1161 -110.9410 North  Level Estimated

Login

Don't have an account? Register now (free) for customized features, flight alerts, and more!